Kyowa Maru No.1 — JD4185 — position and weather

sailwx.info

Track history (hours):
 
Tides and Currents Weather Stations Pressure Air Temp Water Temp Dewpoint Dewpoint Depression Visibility Wind Speed Wind Dir Waves Ship Positions

Kyowa Maru No.1

Last reported at 2018-Jun-24 18:26 UTC. Time now 2018-Jun-25 02:09 UTC.
Position N 33°52' E 135°02'.

Length 59 m; draft 3.5 m.

Type: Tanker. MMSI: 431009445.

Date/timePositionNaut miles runAvg speedWind from/ knotsBaromVisibWave heightAir tempDewpointWater temp
2018-Jun-24 18:26N 33°52' E 135°02'4 9.9
2018-Jun-24 18:00N 33°55' E 134°59'510.5
2018-Jun-24 17:30N 33°59' E 134°54'510.8
2018-Jun-24 17:00N 34°03' E 134°50'611.1
2018-Jun-24 16:26N 34°08' E 134°45'611.4
2018-Jun-24 15:56N 34°12' E 134°41'911.2
2018-Jun-24 15:06N 34°18' E 134°31'110.9
2018-Jun-24 14:59N 34°18' E 134°30'711.0
2018-Jun-24 14:21N 34°21' E 134°22'  
2018-Jun-22 10:15N 34°25' E 133°59'1210.6
2018-Jun-22 09:08N 34°24' E 134°13'3711.2
2018-Jun-22 05:47N 34°08' E 134°54'311.5
2018-Jun-22 05:30N 34°08' E 134°58'511.0
2018-Jun-22 05:01N 34°09' E 135°05'510.9
2018-Jun-22 04:31N 34°09' E 135°11'1 0.3
2018-Jun-22 00:50N 34°09' E 135°12'1 2.0
2018-Jun-22 00:30N 34°09' E 135°12'2 3.9
2018-Jun-22 00:00N 34°09' E 135°09'0 0.2
2018-Jun-21 23:28N 34°09' E 135°09'0 0.0
2018-Jun-21 22:57N 34°09' E 135°09'0 0.0
2018-Jun-21 22:30N 34°09' E 135°09'0 0.0
2018-Jun-21 21:54N 34°09' E 135°09'0 0.1
2018-Jun-21 21:30N 34°09' E 135°09'0 0.0
2018-Jun-21 21:00N 34°09' E 135°09'0 0.0
2018-Jun-21 20:30N 34°09' E 135°09'0 0.1
2018-Jun-21 19:54N 34°09' E 135°09'0 0.1
2018-Jun-21 19:30N 34°09' E 135°09'0 0.0
2018-Jun-21 19:00N 34°09' E 135°09'0 0.0
2018-Jun-21 18:30N 34°09' E 135°09'0 0.0
2018-Jun-21 17:57N 34°09' E 135°09'0 0.0
2018-Jun-21 17:30N 34°09' E 135°09'0 0.0
2018-Jun-21 17:00N 34°09' E 135°09'0 0.0
2018-Jun-21 16:30N 34°09' E 135°09'0 0.1
2018-Jun-21 15:45N 34°09' E 135°09'0 0.0
2018-Jun-21 15:15N 34°09' E 135°09'0 0.1
2018-Jun-21 14:50N 34°09' E 135°09'1 4.1
2018-Jun-21 14:30N 34°09' E 135°08'611.2
2018-Jun-21 14:01N 34°04' E 135°04'611.3
2018-Jun-21 13:27N 33°58' E 135°03'  
2018-Jun-19 00:20N 35°15' E 139°46'412.1
2018-Jun-19 00:00N 35°19' E 139°43'611.3
2018-Jun-18 23:31N 35°24' E 139°42'5 8.6
2018-Jun-18 22:58N 35°29' E 139°42'0 0.1
2018-Jun-18 22:25N 35°29' E 139°42'0 0.0
2018-Jun-18 19:44N 35°29' E 139°42'0 0.0
2018-Jun-18 17:50N 35°29' E 139°42'0 0.0
2018-Jun-18 17:02N 35°29' E 139°42'0 0.0
2018-Jun-18 16:56N 35°29' E 139°42'0 0.0
2018-Jun-18 16:26N 35°29' E 139°42'0 0.0
2018-Jun-18 15:56N 35°29' E 139°42'0 0.0
2018-Jun-18 14:32N 35°29' E 139°42'0 0.0
2018-Jun-18 14:14N 35°29' E 139°42'0 0.0
2018-Jun-18 13:44N 35°29' E 139°42'0 0.0
2018-Jun-18 13:14N 35°29' E 139°42'0 0.0
2018-Jun-18 12:44N 35°29' E 139°42'0 0.0
2018-Jun-18 12:26N 35°29' E 139°42'0 0.0
2018-Jun-18 11:20N 35°29' E 139°42'0 0.0
2018-Jun-18 09:56N 35°29' E 139°42'0 0.0
2018-Jun-18 09:20N 35°29' E 139°42'0 0.0
2018-Jun-18 04:08N 35°29' E 139°42'0 0.0
2018-Jun-18 03:46N 35°29' E 139°42'0 0.0
2018-Jun-18 03:31N 35°29' E 139°42'2 3.5
2018-Jun-18 03:00N 35°30' E 139°44'2 4.9
2018-Jun-18 02:30N 35°32' E 139°45'0 0.0
2018-Jun-17 23:42N 35°32' E 139°45'0 0.0
2018-Jun-17 23:09N 35°32' E 139°45'0 0.0
2018-Jun-17 22:48N 35°32' E 139°45'1 2.8
2018-Jun-17 22:30N 35°31' E 139°46'4 8.0
2018-Jun-17 22:01N 35°29' E 139°42'0 0.3
2018-Jun-17 21:06N 35°29' E 139°42'0 0.0
2018-Jun-17 21:00N 35°29' E 139°42'0 0.0
2018-Jun-17 20:30N 35°29' E 139°42'0 0.0
2018-Jun-17 20:00N 35°29' E 139°42'0 0.0
2018-Jun-17 19:15N 35°29' E 139°42'0 0.0
2018-Jun-17 19:00N 35°29' E 139°42'0 0.0
2018-Jun-17 18:30N 35°29' E 139°42'0 0.0
2018-Jun-17 18:00N 35°29' E 139°42'0 0.0
2018-Jun-17 17:30N 35°29' E 139°42'0 0.0
2018-Jun-17 17:00N 35°29' E 139°42'0 0.0
2018-Jun-17 16:30N 35°29' E 139°42'0 0.0
2018-Jun-17 16:00N 35°29' E 139°42'0 0.0
2018-Jun-17 15:21N 35°29' E 139°42'0 0.0
2018-Jun-17 14:54N 35°29' E 139°42'0 0.0
2018-Jun-17 14:24N 35°29' E 139°42'0 0.0
2018-Jun-17 13:48N 35°29' E 139°42'0 0.0
2018-Jun-17 13:30N 35°29' E 139°42'0 0.0
2018-Jun-17 13:00N 35°29' E 139°42'0 0.0
2018-Jun-17 12:30N 35°29' E 139°42'0 0.0
2018-Jun-17 12:00N 35°29' E 139°42'0 0.0
2018-Jun-17 11:30N 35°29' E 139°42'0 0.0
2018-Jun-17 11:00N 35°29' E 139°42'0 0.0
2018-Jun-17 10:18N 35°29' E 139°42'0 0.0
2018-Jun-17 09:57N 35°29' E 139°42'0 0.0
2018-Jun-17 09:30N 35°29' E 139°42'0 0.0
2018-Jun-17 09:00N 35°29' E 139°42'0 0.0
2018-Jun-17 08:18N 35°29' E 139°42'0 0.0
2018-Jun-17 07:56N 35°29' E 139°42'0 0.0
2018-Jun-17 07:26N 35°29' E 139°42'0 0.0
2018-Jun-17 06:56N 35°29' E 139°42'0 0.0
2018-Jun-17 06:20N 35°29' E 139°42'0 0.0
2018-Jun-17 05:56N 35°29' E 139°42'0 0.0
2018-Jun-17 05:26N 35°29' E 139°42'0 0.0
2018-Jun-17 03:50N 35°29' E 139°42'0 0.0
2018-Jun-17 03:26N 35°29' E 139°42'0 0.0
2018-Jun-17 02:56N 35°29' E 139°42'0 0.0
2018-Jun-17 02:26N 35°29' E 139°42'0 0.0
2018-Jun-17 01:50N 35°29' E 139°42'0 0.0
2018-Jun-17 01:26N 35°29' E 139°42'0 0.0
2018-Jun-17 00:56N 35°29' E 139°42'0 0.0
2018-Jun-17 00:08N 35°29' E 139°42'0 0.0
2018-Jun-16 23:44N 35°29' E 139°42'0 0.0
2018-Jun-16 23:20N 35°29' E 139°42'0 0.0
2018-Jun-16 22:50N 35°29' E 139°42'0 0.0
2018-Jun-16 21:44N 35°29' E 139°42'0 0.0
2018-Jun-16 21:20N 35°29' E 139°42'0 0.0
2018-Jun-16 20:59N 35°29' E 139°42'0 0.0
2018-Jun-16 20:26N 35°29' E 139°42'0 0.0
2018-Jun-16 19:59N 35°29' E 139°42'0 0.0
2018-Jun-16 19:29N 35°29' E 139°42'0 0.0
2018-Jun-16 18:59N 35°29' E 139°42'0 0.0
2018-Jun-16 18:26N 35°29' E 139°42'0 0.0
2018-Jun-16 17:59N 35°29' E 139°42'0 0.0
2018-Jun-16 17:26N 35°29' E 139°42'0 0.0
2018-Jun-16 16:55N 35°29' E 139°42'0 0.0
2018-Jun-16 16:25N 35°29' E 139°42'0 0.0
2018-Jun-16 15:55N 35°29' E 139°42'0 0.0
2018-Jun-16 15:25N 35°29' E 139°42'0 0.0
2018-Jun-16 14:55N 35°29' E 139°42'0 0.0
2018-Jun-16 14:28N 35°29' E 139°42'0 0.0
2018-Jun-16 13:55N 35°29' E 139°42'0 0.0
2018-Jun-16 13:13N 35°29' E 139°42'0 0.0
2018-Jun-16 12:55N 35°29' E 139°42'0 0.0
2018-Jun-16 12:19N 35°29' E 139°42'0 0.0
2018-Jun-16 11:55N 35°29' E 139°42'0 0.0
2018-Jun-16 11:19N 35°29' E 139°42'0 0.0
2018-Jun-16 10:37N 35°29' E 139°42'0 0.0
2018-Jun-16 10:25N 35°29' E 139°42'0 0.0
2018-Jun-16 09:43N 35°29' E 139°42'0 0.0
2018-Jun-16 09:19N 35°29' E 139°42'0 0.0
2018-Jun-16 08:55N 35°29' E 139°42'0 0.0
2018-Jun-16 08:25N 35°29' E 139°42'0 0.0
2018-Jun-16 07:55N 35°29' E 139°42'0 0.0
2018-Jun-16 07:25N 35°29' E 139°42'0 0.0
2018-Jun-16 06:43N 35°29' E 139°42'0 0.0
2018-Jun-16 06:25N 35°29' E 139°42'0 0.0
2018-Jun-16 02:01N 35°29' E 139°42'0 0.0
2018-Jun-16 01:55N 35°29' E 139°42'0 0.0
2018-Jun-16 01:19N 35°29' E 139°42'0 0.0
2018-Jun-16 00:56N 35°29' E 139°42'0 0.1
2018-Jun-16 00:30N 35°29' E 139°42'3 6.5
2018-Jun-16 00:00N 35°26' E 139°42'3 6.4
2018-Jun-15 23:31N 35°23' E 139°40'0 0.1
2018-Jun-15 23:00N 35°23' E 139°40'0 0.0
2018-Jun-15 22:30N 35°23' E 139°40'0 0.0
2018-Jun-15 22:00N 35°23' E 139°40'0 0.0
2018-Jun-15 21:30N 35°23' E 139°40'0 0.0
2018-Jun-15 21:00N 35°23' E 139°40'0 0.0
2018-Jun-15 20:30N 35°23' E 139°40'0 0.0
2018-Jun-15 20:00N 35°23' E 139°40'0 0.1
2018-Jun-15 19:30N 35°23' E 139°40'0 0.0
2018-Jun-15 19:00N 35°23' E 139°40'0 0.0
2018-Jun-15 18:30N 35°23' E 139°40'0 0.0
2018-Jun-15 18:00N 35°23' E 139°40'0 0.0
2018-Jun-15 17:30N 35°23' E 139°40'0 0.0
2018-Jun-15 17:00N 35°23' E 139°40'0 0.0
2018-Jun-15 16:30N 35°23' E 139°40'0 0.0
2018-Jun-15 16:00N 35°23' E 139°40'0 0.0
2018-Jun-15 15:30N 35°23' E 139°40'0 0.0
2018-Jun-15 15:00N 35°23' E 139°40'0 0.1
2018-Jun-15 14:30N 35°23' E 139°40'0 0.1
2018-Jun-15 14:00N 35°23' E 139°40'0 0.0
2018-Jun-15 13:30N 35°23' E 139°40'0 0.0
2018-Jun-15 13:00N 35°23' E 139°40'0 0.0
2018-Jun-15 12:30N 35°23' E 139°40'0 0.1
2018-Jun-15 12:00N 35°23' E 139°40'0 0.0
2018-Jun-15 11:30N 35°23' E 139°40'0 0.0
2018-Jun-15 11:00N 35°23' E 139°40'0 0.0
2018-Jun-15 10:30N 35°23' E 139°40'0 0.0
2018-Jun-15 09:57N 35°23' E 139°40'1 2.9
2018-Jun-15 09:31N 35°24' E 139°39'0 0.5
2018-Jun-15 09:00N 35°25' E 139°39'0 0.0
2018-Jun-15 08:30N 35°25' E 139°39'0 0.0
2018-Jun-15 08:00N 35°25' E 139°39'0 0.0
2018-Jun-15 07:30N 35°25' E 139°39'0 0.1
2018-Jun-15 07:00N 35°25' E 139°39'1 1.4
2018-Jun-15 06:30N 35°24' E 139°39'2 4.2
2018-Jun-15 06:00N 35°24' E 139°42'5 9.8
2018-Jun-15 05:30N 35°29' E 139°42'0 0.0
2018-Jun-14 21:09N 35°29' E 139°42'0 0.0
2018-Jun-14 20:42N 35°29' E 139°42'0 0.0
2018-Jun-14 20:30N 35°29' E 139°42'0 0.0
2018-Jun-14 20:00N 35°29' E 139°42'  
Track history (hours):
 
Tides and Currents Weather Stations Pressure Air Temp Water Temp Dewpoint Dewpoint Depression Visibility Wind Speed Wind Dir Waves Ship Positions

Kyowa Maru No.1

Last reported at 2018-Jun-24 18:26 UTC. Time now 2018-Jun-25 02:09 UTC.
Position N 33°52' E 135°02'.

Length 59 m; draft 3.5 m.

Type: Tanker. MMSI: 431009445.

Date/timePositionNaut miles runAvg speedWind from/ knotsBaromVisibWave heightAir tempDewpointWater temp
2018-Jun-24 18:26N 33°52' E 135°02'4 9.9
2018-Jun-24 18:00N 33°55' E 134°59'510.5
2018-Jun-24 17:30N 33°59' E 134°54'510.8
2018-Jun-24 17:00N 34°03' E 134°50'611.1
2018-Jun-24 16:26N 34°08' E 134°45'611.4
2018-Jun-24 15:56N 34°12' E 134°41'911.2
2018-Jun-24 15:06N 34°18' E 134°31'110.9
2018-Jun-24 14:59N 34°18' E 134°30'711.0
2018-Jun-24 14:21N 34°21' E 134°22'  
2018-Jun-22 10:15N 34°25' E 133°59'1210.6
2018-Jun-22 09:08N 34°24' E 134°13'3711.2
2018-Jun-22 05:47N 34°08' E 134°54'311.5
2018-Jun-22 05:30N 34°08' E 134°58'511.0
2018-Jun-22 05:01N 34°09' E 135°05'510.9
2018-Jun-22 04:31N 34°09' E 135°11'1 0.3
2018-Jun-22 00:50N 34°09' E 135°12'1 2.0
2018-Jun-22 00:30N 34°09' E 135°12'2 3.9
2018-Jun-22 00:00N 34°09' E 135°09'0 0.2
2018-Jun-21 23:28N 34°09' E 135°09'0 0.0
2018-Jun-21 22:57N 34°09' E 135°09'0 0.0
2018-Jun-21 22:30N 34°09' E 135°09'0 0.0
2018-Jun-21 21:54N 34°09' E 135°09'0 0.1
2018-Jun-21 21:30N 34°09' E 135°09'0 0.0
2018-Jun-21 21:00N 34°09' E 135°09'0 0.0
2018-Jun-21 20:30N 34°09' E 135°09'0 0.1
2018-Jun-21 19:54N 34°09' E 135°09'0 0.1
2018-Jun-21 19:30N 34°09' E 135°09'0 0.0
2018-Jun-21 19:00N 34°09' E 135°09'0 0.0
2018-Jun-21 18:30N 34°09' E 135°09'0 0.0
2018-Jun-21 17:57N 34°09' E 135°09'0 0.0
2018-Jun-21 17:30N 34°09' E 135°09'0 0.0
2018-Jun-21 17:00N 34°09' E 135°09'0 0.0
2018-Jun-21 16:30N 34°09' E 135°09'0 0.1
2018-Jun-21 15:45N 34°09' E 135°09'0 0.0
2018-Jun-21 15:15N 34°09' E 135°09'0 0.1
2018-Jun-21 14:50N 34°09' E 135°09'1 4.1
2018-Jun-21 14:30N 34°09' E 135°08'611.2
2018-Jun-21 14:01N 34°04' E 135°04'611.3
2018-Jun-21 13:27N 33°58' E 135°03'  
2018-Jun-19 00:20N 35°15' E 139°46'412.1
2018-Jun-19 00:00N 35°19' E 139°43'611.3
2018-Jun-18 23:31N 35°24' E 139°42'5 8.6
2018-Jun-18 22:58N 35°29' E 139°42'0 0.1
2018-Jun-18 22:25N 35°29' E 139°42'0 0.0
2018-Jun-18 19:44N 35°29' E 139°42'0 0.0
2018-Jun-18 17:50N 35°29' E 139°42'0 0.0
2018-Jun-18 17:02N 35°29' E 139°42'0 0.0
2018-Jun-18 16:56N 35°29' E 139°42'0 0.0
2018-Jun-18 16:26N 35°29' E 139°42'0 0.0
2018-Jun-18 15:56N 35°29' E 139°42'0 0.0
2018-Jun-18 14:32N 35°29' E 139°42'0 0.0
2018-Jun-18 14:14N 35°29' E 139°42'0 0.0
2018-Jun-18 13:44N 35°29' E 139°42'0 0.0
2018-Jun-18 13:14N 35°29' E 139°42'0 0.0
2018-Jun-18 12:44N 35°29' E 139°42'0 0.0
2018-Jun-18 12:26N 35°29' E 139°42'0 0.0
2018-Jun-18 11:20N 35°29' E 139°42'0 0.0
2018-Jun-18 09:56N 35°29' E 139°42'0 0.0
2018-Jun-18 09:20N 35°29' E 139°42'0 0.0
2018-Jun-18 04:08N 35°29' E 139°42'0 0.0
2018-Jun-18 03:46N 35°29' E 139°42'0 0.0
2018-Jun-18 03:31N 35°29' E 139°42'2 3.5
2018-Jun-18 03:00N 35°30' E 139°44'2 4.9
2018-Jun-18 02:30N 35°32' E 139°45'0 0.0
2018-Jun-17 23:42N 35°32' E 139°45'0 0.0
2018-Jun-17 23:09N 35°32' E 139°45'0 0.0
2018-Jun-17 22:48N 35°32' E 139°45'1 2.8
2018-Jun-17 22:30N 35°31' E 139°46'4 8.0
2018-Jun-17 22:01N 35°29' E 139°42'0 0.3
2018-Jun-17 21:06N 35°29' E 139°42'0 0.0
2018-Jun-17 21:00N 35°29' E 139°42'0 0.0
2018-Jun-17 20:30N 35°29' E 139°42'0 0.0
2018-Jun-17 20:00N 35°29' E 139°42'0 0.0
2018-Jun-17 19:15N 35°29' E 139°42'0 0.0
2018-Jun-17 19:00N 35°29' E 139°42'0 0.0
2018-Jun-17 18:30N 35°29' E 139°42'0 0.0
2018-Jun-17 18:00N 35°29' E 139°42'0 0.0
2018-Jun-17 17:30N 35°29' E 139°42'0 0.0
2018-Jun-17 17:00N 35°29' E 139°42'0 0.0
2018-Jun-17 16:30N 35°29' E 139°42'0 0.0
2018-Jun-17 16:00N 35°29' E 139°42'0 0.0
2018-Jun-17 15:21N 35°29' E 139°42'0 0.0
2018-Jun-17 14:54N 35°29' E 139°42'0 0.0
2018-Jun-17 14:24N 35°29' E 139°42'0 0.0
2018-Jun-17 13:48N 35°29' E 139°42'0 0.0
2018-Jun-17 13:30N 35°29' E 139°42'0 0.0
2018-Jun-17 13:00N 35°29' E 139°42'0 0.0
2018-Jun-17 12:30N 35°29' E 139°42'0 0.0
2018-Jun-17 12:00N 35°29' E 139°42'0 0.0
2018-Jun-17 11:30N 35°29' E 139°42'0 0.0
2018-Jun-17 11:00N 35°29' E 139°42'0 0.0
2018-Jun-17 10:18N 35°29' E 139°42'0 0.0
2018-Jun-17 09:57N 35°29' E 139°42'0 0.0
2018-Jun-17 09:30N 35°29' E 139°42'0 0.0
2018-Jun-17 09:00N 35°29' E 139°42'0 0.0
2018-Jun-17 08:18N 35°29' E 139°42'0 0.0
2018-Jun-17 07:56N 35°29' E 139°42'0 0.0
2018-Jun-17 07:26N 35°29' E 139°42'0 0.0
2018-Jun-17 06:56N 35°29' E 139°42'0 0.0
2018-Jun-17 06:20N 35°29' E 139°42'0 0.0
2018-Jun-17 05:56N 35°29' E 139°42'0 0.0
2018-Jun-17 05:26N 35°29' E 139°42'0 0.0
2018-Jun-17 03:50N 35°29' E 139°42'0 0.0
2018-Jun-17 03:26N 35°29' E 139°42'0 0.0
2018-Jun-17 02:56N 35°29' E 139°42'0 0.0
2018-Jun-17 02:26N 35°29' E 139°42'0 0.0
2018-Jun-17 01:50N 35°29' E 139°42'0 0.0
2018-Jun-17 01:26N 35°29' E 139°42'0 0.0
2018-Jun-17 00:56N 35°29' E 139°42'0 0.0
2018-Jun-17 00:08N 35°29' E 139°42'0 0.0
2018-Jun-16 23:44N 35°29' E 139°42'0 0.0
2018-Jun-16 23:20N 35°29' E 139°42'0 0.0
2018-Jun-16 22:50N 35°29' E 139°42'0 0.0
2018-Jun-16 21:44N 35°29' E 139°42'0 0.0
2018-Jun-16 21:20N 35°29' E 139°42'0 0.0
2018-Jun-16 20:59N 35°29' E 139°42'0 0.0
2018-Jun-16 20:26N 35°29' E 139°42'0 0.0
2018-Jun-16 19:59N 35°29' E 139°42'0 0.0
2018-Jun-16 19:29N 35°29' E 139°42'0 0.0
2018-Jun-16 18:59N 35°29' E 139°42'0 0.0
2018-Jun-16 18:26N 35°29' E 139°42'0 0.0
2018-Jun-16 17:59N 35°29' E 139°42'0 0.0
2018-Jun-16 17:26N 35°29' E 139°42'0 0.0
2018-Jun-16 16:55N 35°29' E 139°42'0 0.0
2018-Jun-16 16:25N 35°29' E 139°42'0 0.0
2018-Jun-16 15:55N 35°29' E 139°42'0 0.0
2018-Jun-16 15:25N 35°29' E 139°42'0 0.0
2018-Jun-16 14:55N 35°29' E 139°42'0 0.0
2018-Jun-16 14:28N 35°29' E 139°42'0 0.0
2018-Jun-16 13:55N 35°29' E 139°42'0 0.0
2018-Jun-16 13:13N 35°29' E 139°42'0 0.0
2018-Jun-16 12:55N 35°29' E 139°42'0 0.0
2018-Jun-16 12:19N 35°29' E 139°42'0 0.0
2018-Jun-16 11:55N 35°29' E 139°42'0 0.0
2018-Jun-16 11:19N 35°29' E 139°42'0 0.0
2018-Jun-16 10:37N 35°29' E 139°42'0 0.0
2018-Jun-16 10:25N 35°29' E 139°42'0 0.0
2018-Jun-16 09:43N 35°29' E 139°42'0 0.0
2018-Jun-16 09:19N 35°29' E 139°42'0 0.0
2018-Jun-16 08:55N 35°29' E 139°42'0 0.0
2018-Jun-16 08:25N 35°29' E 139°42'0 0.0
2018-Jun-16 07:55N 35°29' E 139°42'0 0.0
2018-Jun-16 07:25N 35°29' E 139°42'0 0.0
2018-Jun-16 06:43N 35°29' E 139°42'0 0.0
2018-Jun-16 06:25N 35°29' E 139°42'0 0.0
2018-Jun-16 02:01N 35°29' E 139°42'0 0.0
2018-Jun-16 01:55N 35°29' E 139°42'0 0.0
2018-Jun-16 01:19N 35°29' E 139°42'0 0.0
2018-Jun-16 00:56N 35°29' E 139°42'0 0.1
2018-Jun-16 00:30N 35°29' E 139°42'3 6.5
2018-Jun-16 00:00N 35°26' E 139°42'3 6.4
2018-Jun-15 23:31N 35°23' E 139°40'0 0.1
2018-Jun-15 23:00N 35°23' E 139°40'0 0.0
2018-Jun-15 22:30N 35°23' E 139°40'0 0.0
2018-Jun-15 22:00N 35°23' E 139°40'0 0.0
2018-Jun-15 21:30N 35°23' E 139°40'0 0.0
2018-Jun-15 21:00N 35°23' E 139°40'0 0.0
2018-Jun-15 20:30N 35°23' E 139°40'0 0.0
2018-Jun-15 20:00N 35°23' E 139°40'0 0.1
2018-Jun-15 19:30N 35°23' E 139°40'0 0.0
2018-Jun-15 19:00N 35°23' E 139°40'0 0.0
2018-Jun-15 18:30N 35°23' E 139°40'0 0.0
2018-Jun-15 18:00N 35°23' E 139°40'0 0.0
2018-Jun-15 17:30N 35°23' E 139°40'0 0.0
2018-Jun-15 17:00N 35°23' E 139°40'0 0.0
2018-Jun-15 16:30N 35°23' E 139°40'0 0.0
2018-Jun-15 16:00N 35°23' E 139°40'0 0.0
2018-Jun-15 15:30N 35°23' E 139°40'0 0.0
2018-Jun-15 15:00N 35°23' E 139°40'0 0.1
2018-Jun-15 14:30N 35°23' E 139°40'0 0.1
2018-Jun-15 14:00N 35°23' E 139°40'0 0.0
2018-Jun-15 13:30N 35°23' E 139°40'0 0.0
2018-Jun-15 13:00N 35°23' E 139°40'0 0.0
2018-Jun-15 12:30N 35°23' E 139°40'0 0.1
2018-Jun-15 12:00N 35°23' E 139°40'0 0.0
2018-Jun-15 11:30N 35°23' E 139°40'0 0.0
2018-Jun-15 11:00N 35°23' E 139°40'0 0.0
2018-Jun-15 10:30N 35°23' E 139°40'0 0.0
2018-Jun-15 09:57N 35°23' E 139°40'1 2.9
2018-Jun-15 09:31N 35°24' E 139°39'0 0.5
2018-Jun-15 09:00N 35°25' E 139°39'0 0.0
2018-Jun-15 08:30N 35°25' E 139°39'0 0.0
2018-Jun-15 08:00N 35°25' E 139°39'0 0.0
2018-Jun-15 07:30N 35°25' E 139°39'0 0.1
2018-Jun-15 07:00N 35°25' E 139°39'1 1.4
2018-Jun-15 06:30N 35°24' E 139°39'2 4.2
2018-Jun-15 06:00N 35°24' E 139°42'5 9.8
2018-Jun-15 05:30N 35°29' E 139°42'0 0.0
2018-Jun-14 21:09N 35°29' E 139°42'0 0.0
2018-Jun-14 20:42N 35°29' E 139°42'0 0.0
2018-Jun-14 20:30N 35°29' E 139°42'0 0.0
2018-Jun-14 20:00N 35°29' E 139°42'  

Dump ship's entire track history